createdAt,value
2018-02-23T00:02:22.707Z,11.03
2018-02-23T00:04:49.299Z,10.23
2018-02-23T00:07:15.895Z,8.60
2018-02-23T00:09:42.496Z,8.17
2018-02-23T00:12:09.084Z,8.20
2018-02-23T00:14:35.683Z,10.87
2018-02-23T00:17:02.299Z,10.07
2018-02-23T00:19:28.976Z,8.37
2018-02-23T00:21:55.559Z,8.63
2018-02-23T00:24:22.159Z,9.83
2018-02-23T00:26:48.757Z,9.53
2018-02-23T00:29:15.343Z,8.60
2018-02-23T00:31:41.944Z,8.70
2018-02-23T00:34:08.531Z,8.10
2018-02-23T00:36:35.126Z,11.33
2018-02-23T00:39:01.733Z,9.23
2018-02-23T00:41:28.326Z,9.00
2018-02-23T00:43:54.912Z,8.07
2018-02-23T00:46:21.579Z,10.70
2018-02-23T00:48:48.172Z,8.57
2018-02-23T00:51:14.768Z,13.17
2018-02-23T00:53:41.363Z,9.13
2018-02-23T00:56:07.967Z,9.37
2018-02-23T00:58:34.556Z,9.87
2018-02-23T01:01:01.167Z,10.30
2018-02-23T01:03:27.767Z,10.90
2018-02-23T01:05:54.359Z,9.10
2018-02-23T01:08:20.960Z,8.93
2018-02-23T01:10:47.548Z,8.30
2018-02-23T01:13:14.135Z,9.20
2018-02-23T01:15:40.765Z,8.17
2018-02-23T01:18:07.356Z,9.33
2018-02-23T01:20:33.948Z,9.97
2018-02-23T01:23:00.579Z,9.80
2018-02-23T01:25:27.163Z,9.37
2018-02-23T01:27:53.752Z,9.67
2018-02-23T01:30:20.362Z,10.10
2018-02-23T01:32:46.958Z,10.10
2018-02-23T01:35:13.551Z,10.20
2018-02-23T01:37:40.170Z,9.80
2018-02-23T01:40:06.768Z,10.77
2018-02-23T01:42:33.417Z,11.70
2018-02-23T01:44:59.968Z,10.33
2018-02-23T01:47:26.563Z,10.40
2018-02-23T01:49:53.160Z,10.43
2018-02-23T01:52:19.770Z,10.43
2018-02-23T01:54:46.404Z,9.70
2018-02-23T01:57:12.963Z,8.67
2018-02-23T01:59:39.571Z,9.53
2018-02-23T02:02:06.159Z,10.33
2018-02-23T02:04:32.747Z,10.57
2018-02-23T02:06:59.352Z,7.63
2018-02-23T02:09:25.944Z,9.30
2018-02-23T02:11:52.542Z,9.27
2018-02-23T02:14:19.150Z,11.90
2018-02-23T02:16:45.752Z,10.27
2018-02-23T02:19:12.347Z,11.13
2018-02-23T02:21:38.953Z,10.57
2018-02-23T02:24:05.546Z,10.27
2018-02-23T02:26:32.136Z,10.43
2018-02-23T02:28:58.755Z,8.60
2018-02-23T02:31:25.348Z,11.00
2018-02-23T02:33:51.956Z,12.00
2018-02-23T02:36:18.554Z,9.80
2018-02-23T02:38:45.143Z,10.20
2018-02-23T02:41:11.736Z,9.70
2018-02-23T02:43:38.336Z,11.23
2018-02-23T02:46:04.929Z,12.30
2018-02-23T02:48:31.525Z,8.73
2018-02-23T02:50:58.139Z,9.20
2018-02-23T02:53:24.733Z,11.10
2018-02-23T02:55:51.330Z,10.43
2018-02-23T02:58:17.927Z,9.90
2018-02-23T03:00:44.516Z,10.63
2018-02-23T03:03:11.113Z,10.87
2018-02-23T03:05:37.717Z,9.10
2018-02-23T03:08:04.299Z,9.30
2018-02-23T03:10:30.888Z,11.97
2018-02-23T03:12:57.531Z,10.20
2018-02-23T03:15:24.124Z,11.40
2018-02-23T03:17:50.711Z,10.10
2018-02-23T03:20:17.328Z,10.53
2018-02-23T03:22:43.931Z,11.27
2018-02-23T03:25:10.527Z,10.93
2018-02-23T03:27:37.134Z,12.80
2018-02-23T03:30:03.741Z,10.10
2018-02-23T03:32:30.323Z,11.17
2018-02-23T03:34:57.784Z,10.53
2018-02-23T03:37:24.372Z,10.40
2018-02-23T03:39:50.960Z,9.93
2018-02-23T03:42:17.571Z,9.73
2018-02-23T03:44:44.167Z,11.37
2018-02-23T03:47:10.761Z,10.47
2018-02-23T03:49:37.362Z,11.80
2018-02-23T03:52:03.951Z,8.43
2018-02-23T03:54:30.547Z,10.80
2018-02-23T03:56:57.319Z,11.50
2018-02-23T03:59:23.907Z,11.60
2018-02-23T04:01:50.512Z,11.93
2018-02-23T04:04:17.145Z,13.20
2018-02-23T04:06:43.739Z,10.67
2018-02-23T04:09:10.328Z,13.60
2018-02-23T04:11:36.931Z,14.07
2018-02-23T04:14:03.564Z,11.40
2018-02-23T04:16:30.185Z,11.83
2018-02-23T04:18:56.785Z,11.93
2018-02-23T04:21:23.379Z,12.57
2018-02-23T04:23:49.968Z,10.63
2018-02-23T04:26:16.575Z,11.13
2018-02-23T04:28:43.167Z,12.23
2018-02-23T04:31:09.783Z,12.30
2018-02-23T04:33:36.435Z,11.90
2018-02-23T04:36:03.027Z,11.90
2018-02-23T04:38:29.620Z,12.00
2018-02-23T04:40:56.230Z,12.83
2018-02-23T04:43:22.824Z,13.07
2018-02-23T04:45:49.415Z,13.70
2018-02-23T04:48:16.028Z,11.50
2018-02-23T04:50:42.619Z,14.97
2018-02-23T04:53:09.211Z,15.40
2018-02-23T04:55:35.819Z,13.03
2018-02-23T04:58:02.407Z,11.73
2018-02-23T05:00:29.008Z,13.20
2018-02-23T05:02:55.620Z,13.47
2018-02-23T05:05:22.215Z,12.80
2018-02-23T05:07:48.813Z,13.20
2018-02-23T05:10:15.415Z,12.13
2018-02-23T05:12:42.004Z,14.87
2018-02-23T05:15:08.595Z,15.13
2018-02-23T05:17:35.208Z,13.07
2018-02-23T05:20:01.804Z,12.80
2018-02-23T05:22:28.395Z,11.90
2018-02-23T05:24:55.011Z,11.93
2018-02-23T05:27:21.595Z,11.77
2018-02-23T05:29:48.203Z,15.30
2018-02-23T05:32:14.800Z,11.77
2018-02-23T05:34:41.391Z,11.57
2018-02-23T05:37:07.983Z,13.27
2018-02-23T05:39:34.590Z,13.30
2018-02-23T05:42:01.183Z,14.10
2018-02-23T05:44:27.776Z,12.80
2018-02-23T05:46:54.388Z,13.30
2018-02-23T05:49:20.980Z,14.27
2018-02-23T05:51:47.579Z,15.17
2018-02-23T05:54:14.188Z,12.63
2018-02-23T05:56:40.780Z,13.70
2018-02-23T05:59:07.380Z,12.13
2018-02-23T06:01:33.987Z,13.37
2018-02-23T06:04:01.427Z,14.53
2018-02-23T06:06:28.023Z,13.70
2018-02-23T06:08:54.635Z,14.10
2018-02-23T06:11:21.232Z,16.50
2018-02-23T06:13:47.827Z,15.73
2018-02-23T06:16:29.191Z,12.07
2018-02-23T06:18:58.721Z,13.40
2018-02-23T06:21:25.320Z,16.07
2018-02-23T06:23:51.949Z,16.80
2018-02-23T06:26:18.535Z,14.67
2018-02-23T06:28:46.056Z,13.57
2018-02-23T06:31:13.012Z,15.10
2018-02-23T06:33:39.599Z,12.70
2018-02-23T06:36:06.194Z,15.80
2018-02-23T06:38:32.940Z,14.47
2018-02-23T06:40:59.527Z,16.20
2018-02-23T06:43:26.127Z,12.57
2018-02-23T06:45:52.731Z,13.73
2018-02-23T06:48:19.323Z,12.30
2018-02-23T06:50:45.919Z,10.17
2018-02-23T06:53:12.578Z,8.47
2018-02-23T06:55:39.168Z,8.47
2018-02-23T06:58:05.755Z,7.10
2018-02-23T07:00:32.374Z,7.50
2018-02-23T07:02:59.105Z,6.50
2018-02-23T07:05:25.548Z,7.90
2018-02-23T07:07:52.527Z,6.30
2018-02-23T07:10:19.124Z,5.63
2018-02-23T07:12:45.720Z,4.63
2018-02-23T07:15:12.318Z,6.37
2018-02-23T07:17:38.930Z,5.00
2018-02-23T07:20:05.524Z,6.47
2018-02-23T07:22:32.435Z,6.70
2018-02-23T07:24:59.011Z,5.20
2018-02-23T07:27:25.607Z,4.83
2018-02-23T07:29:52.208Z,5.73
2018-02-23T07:32:18.828Z,5.27
2018-02-23T07:34:45.422Z,5.97
2018-02-23T07:37:12.009Z,5.20
2018-02-23T07:39:38.631Z,6.23
2018-02-23T07:42:05.208Z,4.67
2018-02-23T07:44:31.839Z,10.27
2018-02-23T07:46:58.428Z,6.50
2018-02-23T07:49:25.045Z,6.57
2018-02-23T07:51:51.855Z,5.33
2018-02-23T07:54:18.446Z,5.67
2018-02-23T07:56:45.067Z,5.93
2018-02-23T07:59:11.660Z,7.93
2018-02-23T08:01:38.260Z,4.87
2018-02-23T08:04:04.851Z,6.17
2018-02-23T08:06:31.440Z,7.40
2018-02-23T08:08:58.047Z,5.50
2018-02-23T08:11:24.646Z,7.83
2018-02-23T08:13:51.224Z,8.00
2018-02-23T08:16:17.836Z,8.43
2018-02-23T08:18:44.432Z,5.93
2018-02-23T08:21:11.031Z,5.63
2018-02-23T08:23:37.624Z,6.37
2018-02-23T08:26:04.252Z,5.30
2018-02-23T08:28:30.843Z,6.73
2018-02-23T08:30:57.435Z,6.20
2018-02-23T08:33:24.091Z,5.30
2018-02-23T08:35:50.679Z,5.30
2018-02-23T08:38:17.268Z,5.20
2018-02-23T08:40:43.871Z,6.60
2018-02-23T08:43:10.459Z,5.87
2018-02-23T08:45:37.068Z,7.13
2018-02-23T08:48:03.671Z,5.00
2018-02-23T08:50:30.259Z,5.37
2018-02-23T08:52:56.859Z,6.50
2018-02-23T08:55:23.448Z,5.40
2018-02-23T08:57:50.055Z,7.17
2018-02-23T09:00:17.283Z,5.73
2018-02-23T09:02:43.871Z,6.17
2018-02-23T09:05:10.464Z,6.03
2018-02-23T09:07:37.055Z,6.90
2018-02-23T09:10:03.661Z,7.80
2018-02-23T09:12:30.246Z,7.00
2018-02-23T09:14:56.831Z,6.60
2018-02-23T09:17:23.431Z,5.33
2018-02-23T09:19:50.024Z,7.50
2018-02-23T09:22:16.649Z,7.50
2018-02-23T09:24:43.455Z,7.37
2018-02-23T09:27:10.048Z,7.47
2018-02-23T09:29:36.643Z,6.90
2018-02-23T09:32:03.235Z,7.13
2018-02-23T09:34:35.628Z,8.10
2018-02-23T09:37:02.212Z,6.73
2018-02-23T09:39:28.820Z,8.83
2018-02-23T09:41:55.411Z,6.33
2018-02-23T09:44:22.047Z,6.10
2018-02-23T09:46:48.652Z,7.10
2018-02-23T09:49:15.233Z,6.50
2018-02-23T09:51:41.843Z,7.40
2018-02-23T09:54:08.429Z,7.07
2018-02-23T09:56:35.016Z,8.60
2018-02-23T09:59:01.611Z,5.67
2018-02-23T10:01:28.282Z,7.93
2018-02-23T10:03:54.883Z,7.10
2018-02-23T10:06:21.472Z,6.83
2018-02-23T10:08:48.060Z,7.10
2018-02-23T10:11:14.656Z,5.03
2018-02-23T10:13:41.251Z,6.30
2018-02-23T10:16:07.851Z,6.60
2018-02-23T10:18:34.443Z,7.47
2018-02-23T10:21:01.051Z,6.47
2018-02-23T10:23:27.647Z,9.40
2018-02-23T10:25:54.231Z,6.73
2018-02-23T10:28:20.835Z,6.10
2018-02-23T10:30:47.419Z,5.97
2018-02-23T10:33:14.004Z,5.50
2018-02-23T10:35:40.603Z,7.90
2018-02-23T10:38:07.191Z,6.47
2018-02-23T10:40:33.795Z,8.40
2018-02-23T10:43:00.383Z,7.57
2018-02-23T10:45:26.984Z,6.10
2018-02-23T10:47:53.588Z,8.43
2018-02-23T10:50:20.179Z,8.80
2018-02-23T10:52:46.784Z,8.03
2018-02-23T10:55:13.377Z,6.63
2018-02-23T10:57:39.964Z,11.50
2018-02-23T11:00:06.560Z,6.60
2018-02-23T11:02:33.160Z,10.20
2018-02-23T11:04:59.760Z,8.60
2018-02-23T11:07:26.347Z,7.53
2018-02-23T11:09:52.941Z,7.90
2018-02-23T11:12:19.539Z,7.57
2018-02-23T11:14:46.123Z,6.77
2018-02-23T11:17:12.724Z,7.60
2018-02-23T11:19:39.306Z,7.80
2018-02-23T11:22:05.894Z,7.20
2018-02-23T11:24:32.495Z,8.67
2018-02-23T11:26:59.079Z,7.73
2018-02-23T11:29:25.679Z,8.23
2018-02-23T11:31:52.275Z,10.07
2018-02-23T11:34:18.860Z,9.80
2018-02-23T11:36:45.463Z,6.77
2018-02-23T11:39:12.051Z,6.20
2018-02-23T11:41:38.654Z,8.13
2018-02-23T11:44:05.244Z,8.20
2018-02-23T11:46:31.832Z,7.37
2018-02-23T11:48:58.431Z,8.90
2018-02-23T11:51:25.028Z,9.07
2018-02-23T11:53:51.628Z,7.23
2018-02-23T11:56:18.216Z,8.80
2018-02-23T11:58:44.818Z,9.30
2018-02-23T12:01:11.408Z,8.83
2018-02-23T12:03:37.995Z,7.67
2018-02-23T12:06:04.595Z,7.63
2018-02-23T12:08:31.183Z,7.33
2018-02-23T12:10:57.779Z,8.00
2018-02-23T12:13:24.364Z,8.93
2018-02-23T12:15:50.974Z,9.43
2018-02-23T12:18:17.559Z,10.57
2018-02-23T12:20:44.147Z,7.60
2018-02-23T12:23:10.756Z,9.33
2018-02-23T12:25:37.411Z,8.20
2018-02-23T12:28:04.008Z,9.03
2018-02-23T12:30:30.599Z,10.23
2018-02-23T12:32:57.199Z,8.93
2018-02-23T12:35:23.794Z,8.40
2018-02-23T12:37:50.378Z,9.90
2018-02-23T12:40:16.999Z,10.13
2018-02-23T12:42:43.593Z,9.27
2018-02-23T12:45:10.188Z,9.43
2018-02-23T12:47:36.779Z,10.53
2018-02-23T12:50:03.379Z,10.83
2018-02-23T12:52:29.976Z,10.37
2018-02-23T12:54:56.572Z,11.47
2018-02-23T12:57:23.173Z,10.60
2018-02-23T12:59:49.776Z,10.53
2018-02-23T13:02:16.412Z,10.40
2018-02-23T13:04:43.000Z,8.63
2018-02-23T13:07:09.603Z,8.83
2018-02-23T13:09:36.195Z,9.17
2018-02-23T13:12:02.780Z,8.53
2018-02-23T13:14:34.936Z,9.20
2018-02-23T13:17:01.520Z,9.33
2018-02-23T13:19:28.118Z,10.50
2018-02-23T13:21:54.711Z,8.63
2018-02-23T13:24:21.320Z,11.90
2018-02-23T13:26:47.910Z,7.70
2018-02-23T13:29:14.507Z,10.80
2018-02-23T13:31:41.103Z,9.60
2018-02-23T13:34:07.695Z,9.67
2018-02-23T13:36:34.295Z,8.00
2018-02-23T13:39:00.879Z,9.37
2018-02-23T13:41:33.243Z,15.53
2018-02-23T13:43:59.835Z,9.20
2018-02-23T13:46:26.431Z,11.70
2018-02-23T13:48:53.036Z,11.23
2018-02-23T13:51:19.652Z,12.00
2018-02-23T13:53:46.243Z,9.47
2018-02-23T13:56:12.846Z,12.20
2018-02-23T13:58:39.447Z,10.10
2018-02-23T14:01:06.048Z,11.10
2018-02-23T14:03:32.649Z,9.70
2018-02-23T14:06:04.049Z,9.97
2018-02-23T14:08:30.639Z,8.83
2018-02-23T14:10:57.228Z,8.03
2018-02-23T14:13:23.826Z,9.10
2018-02-23T14:15:50.411Z,9.43
2018-02-23T14:18:17.028Z,8.57
2018-02-23T14:20:43.624Z,12.20
2018-02-23T14:23:10.220Z,15.80
2018-02-23T14:25:36.812Z,12.77
2018-02-23T14:28:03.416Z,11.33
2018-02-23T14:30:30.014Z,12.10
2018-02-23T14:32:56.626Z,10.20
2018-02-23T14:35:23.216Z,12.43
2018-02-23T14:37:49.832Z,10.90
2018-02-23T14:40:16.423Z,13.30
2018-02-23T14:42:43.026Z,11.37
2018-02-23T14:45:09.619Z,11.53
2018-02-23T14:47:36.235Z,10.70
2018-02-23T14:50:08.627Z,10.70
2018-02-23T14:52:35.223Z,11.37
2018-02-23T14:55:01.840Z,11.67
2018-02-23T14:57:28.431Z,11.27
2018-02-23T14:59:55.137Z,11.00
2018-02-23T15:02:21.677Z,11.43
2018-02-23T15:04:48.296Z,13.00
2018-02-23T15:07:14.886Z,10.37
2018-02-23T15:09:41.479Z,11.90
2018-02-23T15:12:08.090Z,12.40
2018-02-23T15:14:34.679Z,14.30
2018-02-23T15:17:01.280Z,10.80
2018-02-23T15:19:27.871Z,12.37
2018-02-23T15:21:54.477Z,10.40
2018-02-23T15:24:21.063Z,11.43
2018-02-23T15:26:47.678Z,12.93
2018-02-23T15:29:14.299Z,11.80
2018-02-23T15:31:46.704Z,11.27
2018-02-23T15:34:13.303Z,11.17
2018-02-23T15:36:39.899Z,11.20
2018-02-23T15:39:06.500Z,13.43
2018-02-23T15:41:33.091Z,10.80
2018-02-23T15:43:59.691Z,9.53
2018-02-23T15:46:26.288Z,15.03
2018-02-23T15:48:59.535Z,11.77
2018-02-23T15:51:31.679Z,9.93
2018-02-23T15:53:58.267Z,12.67
2018-02-23T15:56:24.875Z,15.60
2018-02-23T15:58:51.471Z,12.83
2018-02-23T16:01:18.063Z,9.07
2018-02-23T16:03:44.659Z,9.40
2018-02-23T16:06:11.291Z,11.00
2018-02-23T16:08:37.879Z,10.00
2018-02-23T16:11:04.485Z,11.10
2018-02-23T16:13:31.080Z,12.53
2018-02-23T16:15:57.671Z,11.57
2018-02-23T16:18:24.288Z,12.60
2018-02-23T16:20:50.868Z,10.13
2018-02-23T16:23:17.476Z,10.10
2018-02-23T16:25:44.064Z,11.90
2018-02-23T16:28:10.660Z,11.27
2018-02-23T16:30:37.261Z,11.77
2018-02-23T16:33:03.848Z,8.67
2018-02-23T16:35:30.446Z,10.90
2018-02-23T16:37:57.035Z,10.90
2018-02-23T16:40:23.658Z,11.93
2018-02-23T16:42:50.280Z,11.33
2018-02-23T16:45:16.872Z,10.30
2018-02-23T16:47:43.468Z,9.50
2018-02-23T16:50:10.060Z,8.00
2018-02-23T16:52:36.661Z,11.27
2018-02-23T16:55:03.255Z,10.93
2018-02-23T16:57:29.868Z,10.03
2018-02-23T16:59:56.470Z,10.60
2018-02-23T17:02:23.068Z,10.80
2018-02-23T17:04:49.675Z,10.90
2018-02-23T17:07:16.274Z,10.10
2018-02-23T17:09:42.875Z,10.23
2018-02-23T17:12:09.467Z,10.90
2018-02-23T17:14:36.083Z,13.80
2018-02-23T17:17:02.703Z,11.40
2018-02-23T17:19:29.295Z,10.80
2018-02-23T17:21:55.895Z,12.90
2018-02-23T17:24:22.490Z,11.13
2018-02-23T17:26:49.102Z,12.33
2018-02-23T17:29:15.704Z,18.73
2018-02-23T17:31:42.306Z,9.30
2018-02-23T17:34:08.904Z,10.33
2018-02-23T17:36:35.499Z,10.83
2018-02-23T17:39:02.108Z,11.17
2018-02-23T17:41:28.695Z,11.17
2018-02-23T17:43:55.300Z,10.67
2018-02-23T17:46:21.900Z,10.37
2018-02-23T17:48:48.537Z,10.50
2018-02-23T17:51:15.092Z,9.43
2018-02-23T17:53:41.687Z,10.83
2018-02-23T17:56:08.318Z,14.20
2018-02-23T17:58:34.899Z,11.17
2018-02-23T18:01:01.495Z,11.30
2018-02-23T18:03:28.088Z,11.93
2018-02-23T18:05:54.717Z,19.57
2018-02-23T18:08:21.323Z,26.13
2018-02-23T18:10:47.903Z,14.33
2018-02-23T18:13:14.499Z,9.60
2018-02-23T18:15:41.104Z,10.73
2018-02-23T18:18:07.696Z,9.27
2018-02-23T18:20:34.291Z,10.67
2018-02-23T18:23:00.880Z,9.93
2018-02-23T18:25:27.516Z,14.30
2018-02-23T18:27:54.120Z,12.67
2018-02-23T18:30:20.732Z,11.73
2018-02-23T18:32:47.330Z,10.40
2018-02-23T18:35:13.975Z,15.50
2018-02-23T18:37:40.531Z,7.50
2018-02-23T18:40:07.120Z,10.60
2018-02-23T18:42:33.732Z,9.40
2018-02-23T18:45:00.316Z,7.23
2018-02-23T18:47:26.911Z,8.33
2018-02-23T18:49:53.512Z,9.27
2018-02-23T18:52:20.142Z,8.97
2018-02-23T18:54:46.754Z,7.77
2018-02-23T18:57:13.338Z,9.13
2018-02-23T18:59:39.954Z,9.27
2018-02-23T19:02:06.544Z,12.23
2018-02-23T19:04:33.172Z,10.03
2018-02-23T19:06:59.787Z,10.03
2018-02-23T19:09:26.391Z,7.60
2018-02-23T19:11:52.992Z,8.73
2018-02-23T19:14:19.588Z,8.50
2018-02-23T19:16:46.212Z,8.60
2018-02-23T19:19:12.816Z,8.33
2018-02-23T19:21:39.387Z,7.83
2018-02-23T19:24:05.992Z,9.00
2018-02-23T19:26:32.583Z,8.73
2018-02-23T19:28:59.184Z,8.87
2018-02-23T19:31:25.764Z,8.70
2018-02-23T19:33:52.376Z,8.03
2018-02-23T19:36:18.967Z,8.50
2018-02-23T19:38:45.559Z,7.27
2018-02-23T19:41:12.153Z,6.20
2018-02-23T19:43:38.741Z,8.30
2018-02-23T19:46:05.338Z,9.17
2018-02-23T19:48:31.936Z,7.93
2018-02-23T19:50:58.552Z,7.63
2018-02-23T19:53:25.143Z,8.00
2018-02-23T19:55:51.739Z,7.13
2018-02-23T19:58:18.335Z,8.37
2018-02-23T20:00:44.924Z,8.47
2018-02-23T20:03:11.526Z,8.73
2018-02-23T20:05:38.123Z,10.90
2018-02-23T20:08:04.708Z,8.63
2018-02-23T20:10:31.303Z,8.00
2018-02-23T20:12:57.896Z,7.83
2018-02-23T20:15:24.499Z,7.93
2018-02-23T20:17:51.088Z,7.10
2018-02-23T20:20:17.676Z,9.53
2018-02-23T20:22:44.271Z,10.27
2018-02-23T20:25:10.876Z,9.40
2018-02-23T20:27:37.477Z,8.67
2018-02-23T20:30:04.076Z,10.03
2018-02-23T20:32:30.664Z,10.47
2018-02-23T20:34:57.263Z,10.40
2018-02-23T20:37:23.858Z,10.53
2018-02-23T20:39:50.455Z,8.53
2018-02-23T20:42:17.044Z,8.90
2018-02-23T20:44:43.660Z,9.20
2018-02-23T20:47:10.249Z,8.73
2018-02-23T20:49:36.838Z,9.07
2018-02-23T20:52:03.440Z,10.07
2018-02-23T20:54:30.032Z,10.27
2018-02-23T20:56:56.678Z,11.60
2018-02-23T20:59:23.281Z,8.53
2018-02-23T21:01:49.884Z,9.37
2018-02-23T21:04:16.471Z,7.33
2018-02-23T21:06:43.075Z,8.60
2018-02-23T21:09:09.668Z,7.60
2018-02-23T21:11:36.532Z,7.13
2018-02-23T21:14:03.125Z,8.70
2018-02-23T21:16:29.724Z,9.10
2018-02-23T21:18:56.338Z,11.57
2018-02-23T21:21:22.935Z,9.23
2018-02-23T21:23:49.535Z,8.03
2018-02-23T21:26:16.130Z,10.67
2018-02-23T21:28:42.724Z,10.00
2018-02-23T21:31:09.317Z,9.07
2018-02-23T21:33:35.928Z,10.70
2018-02-23T21:36:02.596Z,9.50
2018-02-23T21:38:29.135Z,9.40
2018-02-23T21:40:55.731Z,9.67
2018-02-23T21:43:22.327Z,12.50
2018-02-23T21:45:48.916Z,9.23
2018-02-23T21:48:15.507Z,9.97
2018-02-23T21:50:42.104Z,10.60
2018-02-23T21:53:08.723Z,14.10
2018-02-23T21:55:35.319Z,10.67
2018-02-23T21:58:01.915Z,10.50
2018-02-23T22:00:28.511Z,9.67
2018-02-23T22:02:55.111Z,13.50
2018-02-23T22:05:21.715Z,13.53
2018-02-23T22:07:48.306Z,15.27
2018-02-23T22:10:14.924Z,14.83
2018-02-23T22:12:41.536Z,18.57
2018-02-23T22:15:08.119Z,16.83
2018-02-23T22:17:34.722Z,18.40
2018-02-23T22:20:01.315Z,18.80
2018-02-23T22:22:27.911Z,19.10
2018-02-23T22:24:54.511Z,18.33
2018-02-23T22:27:21.124Z,16.23
2018-02-23T22:29:47.730Z,15.93
2018-02-23T22:32:14.328Z,15.87
2018-02-23T22:34:40.923Z,17.20
2018-02-23T22:37:07.528Z,15.63
2018-02-23T22:39:34.119Z,17.43
2018-02-23T22:42:00.711Z,17.20
2018-02-23T22:44:27.407Z,19.37
2018-02-23T22:46:54.007Z,17.92
2018-02-23T22:49:20.603Z,19.33
2018-02-23T22:51:47.212Z,21.97
2018-02-23T22:54:13.815Z,25.10
2018-02-23T22:56:40.415Z,23.50
2018-02-23T22:59:07.015Z,18.63
2018-02-23T23:01:33.622Z,17.83
2018-02-23T23:04:00.216Z,21.43
2018-02-23T23:06:26.824Z,20.00
2018-02-23T23:08:53.434Z,17.90
2018-02-23T23:11:20.032Z,21.03
2018-02-23T23:13:46.641Z,27.13
2018-02-23T23:16:13.236Z,17.67
2018-02-23T23:18:39.859Z,19.10
2018-02-23T23:21:06.455Z,23.80
2018-02-23T23:23:33.065Z,24.50
2018-02-23T23:25:59.675Z,21.97
2018-02-23T23:28:26.275Z,19.13
2018-02-23T23:30:52.872Z,25.97
2018-02-23T23:33:19.466Z,24.00
2018-02-23T23:35:46.088Z,21.90
2018-02-23T23:38:12.685Z,23.63
2018-02-23T23:40:39.282Z,19.50
2018-02-23T23:43:05.886Z,21.57
2018-02-23T23:45:32.491Z,24.03
2018-02-23T23:47:59.140Z,23.40
2018-02-23T23:50:25.735Z,24.70
2018-02-23T23:52:52.351Z,22.47
2018-02-23T23:55:18.940Z,37.37
2018-02-23T23:57:45.544Z,23.40
